Time,TemperatureF,DewpointF,PressureIn,WindDirection,WindDirectionDegrees,WindSpeedMPH,WindSpeedGustMPH,Humidity,HourlyPrecipIn,Conditions,Clouds,dailyrainin,SoftwareType,DateUTC
2015-09-02 00:01:00,75.5,55.6,29.89,East,83,0.0,0.0,50,0.00,CLR,FEW,0.00,WeatherDisplay:10.37,2015-09-02 04:01:00,
2015-09-02 00:06:00,75.5,55.6,29.89,East,83,0.0,0.0,50,0.00,CLR,FEW,0.00,WeatherDisplay:10.37,2015-09-02 04:06:00,
2015-09-02 00:11:00,75.5,55.6,29.89,East,83,0.0,0.0,50,0.00,CLR,FEW,0.00,WeatherDisplay:10.37,2015-09-02 04:11:00,
2015-09-02 00:16:00,75.5,55.6,29.89,East,83,0.0,0.0,50,0.00,CLR,FEW,0.00,WeatherDisplay:10.37,2015-09-02 04:16:00,
2015-09-02 00:21:00,75.0,55.1,29.89,East,83,0.0,0.0,50,0.00,CLR,FEW,0.00,WeatherDisplay:10.37,2015-09-02 04:21:00,
2015-09-02 00:26:00,74.9,55.0,29.89,East,83,0.0,0.0,50,0.00,CLR,FEW,0.00,WeatherDisplay:10.37,2015-09-02 04:26:00,
2015-09-02 00:31:00,74.7,54.8,29.89,East,83,0.0,0.0,50,0.00,CLR,FEW,0.00,WeatherDisplay:10.37,2015-09-02 04:31:00,
2015-09-02 00:36:00,74.6,54.7,29.89,East,83,0.0,0.0,50,0.00,CLR,FEW,0.00,WeatherDisplay:10.37,2015-09-02 04:36:00,
2015-09-02 00:41:00,74.3,54.5,29.89,East,83,0.0,0.0,50,0.00,CLR,FEW,0.00,WeatherDisplay:10.37,2015-09-02 04:41:00,
2015-09-02 00:46:00,74.1,54.3,29.89,East,83,0.0,0.0,50,0.00,CLR,FEW,0.00,WeatherDisplay:10.37,2015-09-02 04:46:00,
2015-09-02 00:51:00,73.9,54.1,29.89,East,83,0.0,0.0,50,0.00,CLR,FEW,0.00,WeatherDisplay:10.37,2015-09-02 04:51:00,
2015-09-02 00:56:00,73.5,53.7,29.89,East,83,0.0,0.0,50,0.00,CLR,FEW,0.00,WeatherDisplay:10.37,2015-09-02 04:56:00,
2015-09-02 01:01:00,73.6,53.8,29.89,East,83,0.0,0.0,50,0.00,CLR,FEW,0.00,WeatherDisplay:10.37,2015-09-02 05:01:00,
2015-09-02 01:06:00,73.3,53.5,29.89,East,83,0.0,0.0,50,0.00,CLR,FEW,0.00,WeatherDisplay:10.37,2015-09-02 05:06:00,
2015-09-02 01:11:00,73.1,53.4,29.89,East,83,0.0,0.0,50,0.00,CLR,FEW,0.00,WeatherDisplay:10.37,2015-09-02 05:11:00,
2015-09-02 01:16:00,73.1,53.4,29.89,East,83,0.0,0.0,50,0.00,CLR,FEW,0.00,WeatherDisplay:10.37,2015-09-02 05:16:00,
2015-09-02 01:21:00,72.8,53.1,29.88,East,83,0.0,0.0,50,0.00,CLR,FEW,0.00,WeatherDisplay:10.37,2015-09-02 05:21:00,
2015-09-02 01:26:00,72.7,53.0,29.89,East,83,0.0,0.0,50,0.00,CLR,FEW,0.00,WeatherDisplay:10.37,2015-09-02 05:26:00,
2015-09-02 01:31:00,72.7,53.0,29.89,East,83,0.0,0.0,50,0.00,CLR,FEW,0.00,WeatherDisplay:10.37,2015-09-02 05:31:00,
2015-09-02 01:36:00,72.8,53.1,29.88,East,83,0.0,0.0,50,0.00,CLR,FEW,0.00,WeatherDisplay:10.37,2015-09-02 05:36:00,
2015-09-02 01:41:00,72.7,53.0,29.88,East,83,0.0,0.0,50,0.00,CLR,FEW,0.00,WeatherDisplay:10.37,2015-09-02 05:41:00,
2015-09-02 01:46:00,72.7,53.0,29.88,East,83,0.0,0.0,50,0.00,CLR,FEW,0.00,WeatherDisplay:10.37,2015-09-02 05:46:00,
2015-09-02 01:51:00,72.8,53.1,29.88,East,83,0.0,0.0,50,0.00,CLR,FEW,0.00,WeatherDisplay:10.37,2015-09-02 05:51:00,
2015-09-02 01:56:00,72.9,53.2,29.88,East,83,0.0,0.0,50,0.00,CLR,FEW,0.00,WeatherDisplay:10.37,2015-09-02 05:56:00,
2015-09-02 02:01:00,72.9,53.2,29.88,East,83,0.0,0.0,50,0.00,CLR,FEW,0.00,WeatherDisplay:10.37,2015-09-02 06:01:00,
2015-09-02 02:06:00,72.9,53.2,29.88,East,79,2.3,2.3,50,0.00,CLR,FEW,0.00,WeatherDisplay:10.37,2015-09-02 06:06:00,
2015-09-02 02:11:00,73.0,53.3,29.88,ENE,65,2.3,2.3,50,0.00,CLR,FEW,0.00,WeatherDisplay:10.37,2015-09-02 06:11:00,
2015-09-02 02:16:00,73.0,53.3,29.88,NE,54,2.3,2.3,50,0.00,CLR,FEW,0.00,WeatherDisplay:10.37,2015-09-02 06:16:00,
2015-09-02 02:21:00,73.3,53.5,29.88,East,99,0.0,0.0,50,0.00,CLR,FEW,0.00,WeatherDisplay:10.37,2015-09-02 06:21:00,
2015-09-02 02:26:00,73.0,53.3,29.88,ENE,69,2.3,2.3,50,0.00,CLR,FEW,0.00,WeatherDisplay:10.37,2015-09-02 06:26:00,
2015-09-02 02:31:00,73.3,53.5,29.87,East,92,2.3,2.3,50,0.00,CLR,FEW,0.00,WeatherDisplay:10.37,2015-09-02 06:31:00,
2015-09-02 02:36:00,73.0,53.3,29.87,ENE,71,1.4,1.4,50,0.00,CLR,FEW,0.00,WeatherDisplay:10.37,2015-09-02 06:36:00,
2015-09-02 02:41:00,73.1,53.4,29.87,ENE,75,1.6,1.6,50,0.00,CLR,FEW,0.00,WeatherDisplay:10.37,2015-09-02 06:41:00,
2015-09-02 02:46:00,73.3,53.5,29.87,ENE,75,0.0,0.0,50,0.00,CLR,FEW,0.00,WeatherDisplay:10.37,2015-09-02 06:46:00,
2015-09-02 02:51:00,73.0,53.3,29.87,ENE,75,0.0,0.0,50,0.00,CLR,FEW,0.00,WeatherDisplay:10.37,2015-09-02 06:51:00,
2015-09-02 02:56:00,73.1,53.4,29.87,ENE,75,0.0,0.0,50,0.00,CLR,FEW,0.00,WeatherDisplay:10.37,2015-09-02 06:56:00,
2015-09-02 03:01:00,73.0,53.3,29.87,ENE,75,0.0,0.0,50,0.00,CLR,FEW,0.00,WeatherDisplay:10.37,2015-09-02 07:01:00,
2015-09-02 03:06:00,73.0,53.3,29.87,ENE,75,0.0,0.0,50,0.00,CLR,FEW,0.00,WeatherDisplay:10.37,2015-09-02 07:06:00,
2015-09-02 03:11:00,73.0,53.3,29.87,ENE,75,0.0,0.0,50,0.00,CLR,FEW,0.00,WeatherDisplay:10.37,2015-09-02 07:11:00,
2015-09-02 03:16:00,72.8,53.1,29.87,ENE,75,0.0,0.0,50,0.00,CLR,FEW,0.00,WeatherDisplay:10.37,2015-09-02 07:16:00,
2015-09-02 03:21:00,72.7,53.0,29.87,ENE,75,0.0,0.0,50,0.00,CLR,FEW,0.00,WeatherDisplay:10.37,2015-09-02 07:21:00,
2015-09-02 03:26:00,72.3,52.6,29.87,ENE,75,0.0,0.0,50,0.00,CLR,FEW,0.00,WeatherDisplay:10.37,2015-09-02 07:26:00,
2015-09-02 03:31:00,72.2,52.5,29.87,ENE,75,0.0,0.0,50,0.00,CLR,FEW,0.00,WeatherDisplay:10.37,2015-09-02 07:31:00,
2015-09-02 03:36:00,72.2,52.5,29.86,ENE,75,0.0,0.0,50,0.00,CLR,FEW,0.00,WeatherDisplay:10.37,2015-09-02 07:36:00,
2015-09-02 03:41:00,71.8,52.2,29.86,ENE,75,0.0,0.0,50,0.00,CLR,FEW,0.00,WeatherDisplay:10.37,2015-09-02 07:41:00,
2015-09-02 03:46:00,71.8,52.2,29.86,ENE,75,0.0,0.0,50,0.00,CLR,FEW,0.00,WeatherDisplay:10.37,2015-09-02 07:46:00,
2015-09-02 03:51:00,71.5,51.9,29.86,ENE,75,0.0,0.0,50,0.00,CLR,FEW,0.00,WeatherDisplay:10.37,2015-09-02 07:51:00,
2015-09-02 03:56:00,71.1,51.5,29.86,ENE,75,0.0,0.0,50,0.00,CLR,FEW,0.00,WeatherDisplay:10.37,2015-09-02 07:56:00,
2015-09-02 04:01:00,70.9,51.3,29.86,ENE,75,0.0,0.0,50,0.00,CLR,FEW,0.00,WeatherDisplay:10.37,2015-09-02 08:01:00,
2015-09-02 04:06:00,71.0,51.4,29.86,ENE,75,0.0,0.0,50,0.00,CLR,FEW,0.00,WeatherDisplay:10.37,2015-09-02 08:06:00,
2015-09-02 04:11:00,71.1,51.5,29.86,ENE,75,0.0,0.0,50,0.00,CLR,FEW,0.00,WeatherDisplay:10.37,2015-09-02 08:11:00,
2015-09-02 04:16:00,70.9,51.3,29.86,ENE,75,0.0,0.0,50,0.00,CLR,FEW,0.00,WeatherDisplay:10.37,2015-09-02 08:16:00,
2015-09-02 04:21:00,70.6,51.1,29.86,ENE,75,0.0,0.0,50,0.00,CLR,FEW,0.00,WeatherDisplay:10.37,2015-09-02 08:21:00,
2015-09-02 04:26:00,70.5,51.0,29.86,ENE,75,0.0,0.0,50,0.00,CLR,FEW,0.00,WeatherDisplay:10.37,2015-09-02 08:26:00,
2015-09-02 04:31:00,70.5,51.0,29.85,ENE,75,0.0,0.0,50,0.00,CLR,FEW,0.00,WeatherDisplay:10.37,2015-09-02 08:31:00,
2015-09-02 04:36:00,70.2,50.7,29.85,ENE,75,0.0,0.0,50,0.00,CLR,FEW,0.00,WeatherDisplay:10.37,2015-09-02 08:36:00,
2015-09-02 04:41:00,70.1,50.6,29.85,ENE,75,0.0,0.0,50,0.00,CLR,FEW,0.00,WeatherDisplay:10.37,2015-09-02 08:41:00,
2015-09-02 04:46:00,70.0,50.5,29.85,ENE,75,0.0,0.0,50,0.00,CLR,FEW,0.00,WeatherDisplay:10.37,2015-09-02 08:46:00,
2015-09-02 04:51:00,69.7,50.2,29.85,ENE,75,0.0,0.0,50,0.00,CLR,FEW,0.00,WeatherDisplay:10.37,2015-09-02 08:51:00,
2015-09-02 04:56:00,69.9,50.4,29.85,ENE,75,0.0,0.0,50,0.00,CLR,FEW,0.00,WeatherDisplay:10.37,2015-09-02 08:56:00,
2015-09-02 05:01:00,69.8,50.3,29.85,ENE,75,0.0,0.0,50,0.00,CLR,FEW,0.00,WeatherDisplay:10.37,2015-09-02 09:01:00,
2015-09-02 05:11:00,69.7,50.2,29.85,ENE,75,0.0,0.0,50,0.00,CLR,FEW,0.00,WeatherDisplay:10.37,2015-09-02 09:11:00,
2015-09-02 05:16:00,69.9,50.4,29.85,ENE,75,0.0,0.0,50,0.00,CLR,FEW,0.00,WeatherDisplay:10.37,2015-09-02 09:16:00,
2015-09-02 05:21:00,69.4,49.9,29.85,ENE,75,0.0,0.0,50,0.00,CLR,FEW,0.00,WeatherDisplay:10.37,2015-09-02 09:21:00,
2015-09-02 05:26:00,69.7,50.2,29.85,ENE,75,0.0,0.0,50,0.00,CLR,FEW,0.00,WeatherDisplay:10.37,2015-09-02 09:26:00,
2015-09-02 05:31:00,70.0,50.5,29.85,ENE,75,0.0,0.0,50,0.00,CLR,FEW,0.00,WeatherDisplay:10.37,2015-09-02 09:31:00,
2015-09-02 05:36:00,69.6,50.1,29.85,ENE,75,0.0,0.0,50,0.00,CLR,FEW,0.00,WeatherDisplay:10.37,2015-09-02 09:36:00,
2015-09-02 05:41:00,69.9,50.4,29.85,ENE,75,0.0,0.0,50,0.00,CLR,FEW,0.00,WeatherDisplay:10.37,2015-09-02 09:41:00,
2015-09-02 05:46:00,70.2,50.7,29.85,ENE,75,0.0,0.0,50,0.00,CLR,FEW,0.00,WeatherDisplay:10.37,2015-09-02 09:46:00,
2015-09-02 05:51:00,70.0,50.5,29.85,ENE,75,0.0,0.0,50,0.00,CLR,FEW,0.00,WeatherDisplay:10.37,2015-09-02 09:51:00,
2015-09-02 05:56:00,69.6,50.1,29.85,ENE,75,0.0,0.0,50,0.00,CLR,FEW,0.00,WeatherDisplay:10.37,2015-09-02 09:56:00,
2015-09-02 06:01:00,69.9,50.4,29.85,ENE,75,0.0,0.0,50,0.00,CLR,FEW,0.00,WeatherDisplay:10.37,2015-09-02 10:01:00,
2015-09-02 06:06:00,69.8,50.3,29.85,ENE,75,0.0,0.0,50,0.00,CLR,FEW,0.00,WeatherDisplay:10.37,2015-09-02 10:06:00,
2015-09-02 06:11:00,69.4,49.9,29.85,ENE,75,0.0,0.0,50,0.00,CLR,FEW,0.00,WeatherDisplay:10.37,2015-09-02 10:11:00,
2015-09-02 06:16:00,69.7,50.2,29.85,ENE,75,0.0,0.0,50,0.00,CLR,FEW,0.00,WeatherDisplay:10.37,2015-09-02 10:16:00,
2015-09-02 06:21:00,69.9,50.4,29.85,ENE,75,0.0,0.0,50,0.00,CLR,FEW,0.00,WeatherDisplay:10.37,2015-09-02 10:21:00,
2015-09-02 06:26:00,69.8,50.3,29.85,ENE,75,0.0,0.0,50,0.00,CLR,FEW,0.00,WeatherDisplay:10.37,2015-09-02 10:26:00,
2015-09-02 06:31:00,69.5,50.0,29.85,ENE,75,0.0,0.0,50,0.00,CLR,FEW,0.00,WeatherDisplay:10.37,2015-09-02 10:31:00,
2015-09-02 06:36:00,69.8,50.3,29.85,ENE,75,0.0,0.0,50,0.00,CLR,FEW,0.00,WeatherDisplay:10.37,2015-09-02 10:36:00,
2015-09-02 06:41:00,69.8,50.3,29.85,ENE,75,0.0,0.0,50,0.00,CLR,FEW,0.00,WeatherDisplay:10.37,2015-09-02 10:41:00,
2015-09-02 06:46:00,69.7,50.2,29.85,ENE,75,0.0,0.0,50,0.00,CLR,FEW,0.00,WeatherDisplay:10.37,2015-09-02 10:46:00,
2015-09-02 06:51:00,69.8,50.3,29.86,ENE,75,0.0,0.0,50,0.00,CLR,FEW,0.00,WeatherDisplay:10.37,2015-09-02 10:51:00,
2015-09-02 06:56:00,69.9,50.4,29.86,ENE,75,0.0,0.0,50,0.00,CLR,FEW,0.00,WeatherDisplay:10.37,2015-09-02 10:56:00,
2015-09-02 07:01:00,69.9,50.4,29.86,ENE,75,0.0,0.0,50,0.00,CLR,FEW,0.00,WeatherDisplay:10.37,2015-09-02 11:01:00,
2015-09-02 07:06:00,70.2,50.7,29.86,ENE,75,0.0,0.0,50,0.00,CLR,FEW,0.00,WeatherDisplay:10.37,2015-09-02 11:06:00,
2015-09-02 07:11:00,70.5,51.0,29.87,ENE,75,0.0,0.0,50,0.00,CLR,FEW,0.00,WeatherDisplay:10.37,2015-09-02 11:11:00,
2015-09-02 07:16:00,70.7,51.1,29.87,ENE,75,0.0,0.0,50,0.00,CLR,FEW,0.00,WeatherDisplay:10.37,2015-09-02 11:16:00,
2015-09-02 07:21:00,71.2,51.6,29.87,ENE,75,0.0,0.0,50,0.00,CLR,FEW,0.00,WeatherDisplay:10.37,2015-09-02 11:21:00,
2015-09-02 07:26:00,71.2,51.6,29.87,ENE,75,0.0,0.0,50,0.00,CLR,FEW,0.00,WeatherDisplay:10.37,2015-09-02 11:26:00,
2015-09-02 07:31:00,71.7,52.1,29.87,ENE,75,0.0,0.0,50,0.00,CLR,FEW,0.00,WeatherDisplay:10.37,2015-09-02 11:31:00,
2015-09-02 07:36:00,72.0,52.3,29.87,ENE,75,0.0,0.0,50,0.00,CLR,FEW,0.00,WeatherDisplay:10.37,2015-09-02 11:36:00,
2015-09-02 07:41:00,72.3,52.6,29.87,ENE,75,0.0,0.0,50,0.00,CLR,FEW,0.00,WeatherDisplay:10.37,2015-09-02 11:41:00,
2015-09-02 07:46:00,72.7,53.0,29.86,ENE,75,0.0,0.0,50,0.00,CLR,FEW,0.00,WeatherDisplay:10.37,2015-09-02 11:46:00,
2015-09-02 07:51:00,73.1,53.4,29.86,ENE,75,0.0,0.0,50,0.00,CLR,FEW,0.00,WeatherDisplay:10.37,2015-09-02 11:51:00,
2015-09-02 07:56:00,73.5,53.7,29.87,ENE,75,0.0,0.0,50,0.00,CLR,FEW,0.00,WeatherDisplay:10.37,2015-09-02 11:56:00,
2015-09-02 08:01:00,74.0,54.2,29.86,ENE,75,0.0,0.0,50,0.00,CLR,FEW,0.00,WeatherDisplay:10.37,2015-09-02 12:01:00,
2015-09-02 08:06:00,74.5,54.6,29.86,SSE,151,3.0,3.0,50,0.00,CLR,FEW,0.00,WeatherDisplay:10.37,2015-09-02 12:06:00,
2015-09-02 08:11:00,75.0,55.1,29.86,ESE,114,2.3,2.3,50,0.00,CLR,FEW,0.00,WeatherDisplay:10.37,2015-09-02 12:11:00,
2015-09-02 08:16:00,75.6,55.6,29.86,SSE,162,2.3,2.3,50,0.00,CLR,FEW,0.00,WeatherDisplay:10.37,2015-09-02 12:16:00,
2015-09-02 08:21:00,75.9,55.9,29.87,ESE,123,2.5,2.5,50,0.00,CLR,FEW,0.00,WeatherDisplay:10.37,2015-09-02 12:21:00,
2015-09-02 08:26:00,76.3,56.3,29.86,SE,143,2.3,2.3,50,0.00,CLR,FEW,0.00,WeatherDisplay:10.37,2015-09-02 12:26:00,
2015-09-02 08:31:00,76.8,56.8,29.86,North,0,3.5,3.5,50,0.00,CLR,FEW,0.00,WeatherDisplay:10.37,2015-09-02 12:31:00,
2015-09-02 08:36:00,77.2,57.1,29.86,ESE,113,3.5,3.5,50,0.00,CLR,FEW,0.00,WeatherDisplay:10.37,2015-09-02 12:36:00,
2015-09-02 08:41:00,77.4,57.3,29.86,East,86,3.5,3.5,50,0.00,CLR,FEW,0.00,WeatherDisplay:10.37,2015-09-02 12:41:00,
2015-09-02 08:46:00,77.5,57.4,29.86,ENE,71,4.6,4.6,50,0.00,CLR,FEW,0.00,WeatherDisplay:10.37,2015-09-02 12:46:00,
2015-09-02 08:51:00,78.0,57.9,29.86,ESE,116,3.5,3.5,50,0.00,CLR,FEW,0.00,WeatherDisplay:10.37,2015-09-02 12:51:00,
2015-09-02 08:56:00,78.3,58.1,29.86,ESE,119,4.6,4.6,50,0.00,CLR,FEW,0.00,WeatherDisplay:10.37,2015-09-02 12:56:00,
2015-09-02 09:01:00,78.3,58.1,29.86,SSE,162,5.8,5.8,50,0.00,CLR,FEW,0.00,WeatherDisplay:10.37,2015-09-02 13:01:00,
2015-09-02 09:06:00,78.1,57.9,29.86,East,82,4.6,4.6,50,0.00,CLR,FEW,0.00,WeatherDisplay:10.37,2015-09-02 13:06:00,
2015-09-02 09:11:00,78.8,58.6,29.86,ESE,106,4.6,4.6,50,0.00,CLR,FEW,0.00,WeatherDisplay:10.37,2015-09-02 13:11:00,
2015-09-02 09:16:00,78.9,58.7,29.86,SSE,155,5.8,5.8,50,0.00,CLR,FEW,0.00,WeatherDisplay:10.37,2015-09-02 13:16:00,
2015-09-02 09:21:00,79.2,59.0,29.86,ENE,64,3.5,3.5,50,0.00,CLR,FEW,0.00,WeatherDisplay:10.37,2015-09-02 13:21:00,
2015-09-02 09:26:00,80.0,59.7,29.86,ESE,121,3.5,3.5,50,0.00,CLR,FEW,0.00,WeatherDisplay:10.37,2015-09-02 13:26:00,
2015-09-02 09:31:00,80.5,60.1,29.85,NNE,23,4.6,4.6,50,0.00,CLR,FEW,0.00,WeatherDisplay:10.37,2015-09-02 13:31:00,
2015-09-02 09:36:00,80.8,60.4,29.85,ENE,62,3.6,3.6,50,0.00,CLR,FEW,0.00,WeatherDisplay:10.37,2015-09-02 13:36:00,
2015-09-02 09:41:00,80.9,60.5,29.85,East,96,4.8,4.8,50,0.00,CLR,FEW,0.00,WeatherDisplay:10.37,2015-09-02 13:41:00,
2015-09-02 09:42:00,81.0,60.6,29.85,East,82,5.2,5.2,50,0.00,CLR,FEW,0.00,WeatherDisplay:10.37,2015-09-02 13:42:00,
2015-09-02 09:47:00,81.4,61.0,29.85,SE,145,5.8,5.8,50,0.00,CLR,FEW,0.00,WeatherDisplay:10.37,2015-09-02 13:47:00,
2015-09-02 09:52:00,81.4,61.0,29.85,SW,229,2.5,2.5,50,0.00,CLR,FEW,0.00,WeatherDisplay:10.37,2015-09-02 13:52:00,
2015-09-02 09:57:00,81.3,60.9,29.85,SSE,155,4.6,4.6,50,0.00,CLR,FEW,0.00,WeatherDisplay:10.37,2015-09-02 13:57:00,
2015-09-02 10:07:00,80.4,60.1,29.85,East,95,3.5,3.5,50,0.00,CLR,FEW,0.00,WeatherDisplay:10.37,2015-09-02 14:07:00,
2015-09-02 10:12:00,80.8,60.4,29.85,South,171,3.5,3.5,50,0.00,CLR,FEW,0.00,WeatherDisplay:10.37,2015-09-02 14:12:00,
2015-09-02 10:17:00,81.0,60.6,29.85,ESE,113,6.9,6.9,50,0.00,CLR,FEW,0.00,WeatherDisplay:10.37,2015-09-02 14:17:00,
2015-09-02 10:22:00,81.3,60.9,29.85,ENE,69,2.8,2.8,50,0.00,CLR,FEW,0.00,WeatherDisplay:10.37,2015-09-02 14:22:00,
2015-09-02 10:27:00,82.4,61.9,29.85,NE,35,4.6,4.6,50,0.00,CLR,FEW,0.00,WeatherDisplay:10.37,2015-09-02 14:27:00,
2015-09-02 10:32:00,83.4,62.8,29.84,SE,145,4.6,4.6,50,0.00,CLR,FEW,0.00,WeatherDisplay:10.37,2015-09-02 14:32:00,
2015-09-02 10:37:00,83.3,62.7,29.84,SSE,151,5.8,5.8,50,0.00,CLR,FEW,0.00,WeatherDisplay:10.37,2015-09-02 14:37:00,
2015-09-02 10:42:00,83.3,62.7,29.85,ESE,112,7.7,7.7,50,0.00,CLR,FEW,0.00,WeatherDisplay:10.37,2015-09-02 14:42:00,
2015-09-02 10:47:00,83.5,62.9,29.85,ESE,117,6.9,6.9,50,0.00,CLR,FEW,0.00,WeatherDisplay:10.37,2015-09-02 14:47:00,
2015-09-02 10:52:00,84.5,63.8,29.84,ENE,65,8.1,8.1,50,0.00,CLR,FEW,0.00,WeatherDisplay:10.37,2015-09-02 14:52:00,
2015-09-02 10:57:00,84.6,63.9,29.84,South,179,5.8,5.8,50,0.00,CLR,FEW,0.00,WeatherDisplay:10.37,2015-09-02 14:57:00,
2015-09-02 11:02:00,84.9,64.2,29.84,SE,126,6.9,6.9,50,0.00,CLR,FEW,0.00,WeatherDisplay:10.37,2015-09-02 15:02:00,
2015-09-02 11:07:00,84.5,63.8,29.83,ESE,109,4.8,4.8,50,0.00,CLR,FEW,0.00,WeatherDisplay:10.37,2015-09-02 15:07:00,
2015-09-02 11:12:00,83.9,63.3,29.83,SE,124,9.2,9.2,50,0.00,CLR,FEW,0.00,WeatherDisplay:10.37,2015-09-02 15:12:00,
2015-09-02 11:17:00,84.0,63.4,29.83,SSE,152,8.1,8.1,50,0.00,CLR,FEW,0.00,WeatherDisplay:10.37,2015-09-02 15:17:00,
2015-09-02 11:22:00,84.0,63.4,29.83,ESE,113,8.1,8.1,50,0.00,CLR,FEW,0.00,WeatherDisplay:10.37,2015-09-02 15:22:00,
2015-09-02 11:27:00,84.7,64.0,29.83,East,96,9.2,9.2,50,0.00,CLR,FEW,0.00,WeatherDisplay:10.37,2015-09-02 15:27:00,
2015-09-02 11:32:00,85.6,64.8,29.83,WSW,244,4.6,4.6,50,0.00,CLR,FEW,0.00,WeatherDisplay:10.37,2015-09-02 15:32:00,
2015-09-02 11:37:00,85.7,64.9,29.83,NW,325,2.3,2.3,50,0.00,CLR,FEW,0.00,WeatherDisplay:10.37,2015-09-02 15:37:00,
2015-09-02 11:42:00,85.5,64.7,29.83,ESE,106,6.9,6.9,50,0.00,CLR,FEW,0.00,WeatherDisplay:10.37,2015-09-02 15:42:00,
2015-09-02 11:47:00,86.4,65.6,29.82,South,178,6.9,6.9,50,0.00,CLR,FEW,0.00,WeatherDisplay:10.37,2015-09-02 15:47:00,
2015-09-02 11:52:00,86.1,65.3,29.82,South,181,2.3,2.3,50,0.00,CLR,FEW,0.00,WeatherDisplay:10.37,2015-09-02 15:52:00,
2015-09-02 11:57:00,85.3,64.6,29.82,SW,230,4.6,4.6,50,0.00,CLR,FEW,0.00,WeatherDisplay:10.37,2015-09-02 15:57:00,
2015-09-02 12:02:00,85.5,64.7,29.82,WNW,301,2.3,2.3,50,0.00,CLR,FEW,0.00,WeatherDisplay:10.37,2015-09-02 16:02:00,
2015-09-02 12:07:00,85.3,64.6,29.81,ESE,119,6.9,6.9,50,0.00,CLR,FEW,0.00,WeatherDisplay:10.37,2015-09-02 16:07:00,
2015-09-02 12:12:00,86.0,65.2,29.81,SSW,195,8.6,8.6,50,0.00,CLR,FEW,0.00,WeatherDisplay:10.37,2015-09-02 16:12:00,
2015-09-02 12:17:00,86.3,65.5,29.81,ESE,104,6.2,6.2,50,0.00,CLR,FEW,0.00,WeatherDisplay:10.37,2015-09-02 16:17:00,
2015-09-02 12:22:00,86.9,66.0,29.81,NNE,28,8.1,8.1,50,0.00,CLR,FEW,0.00,WeatherDisplay:10.37,2015-09-02 16:22:00,
2015-09-02 12:27:00,87.9,66.9,29.81,NNE,32,9.2,9.2,50,0.00,CLR,FEW,0.00,WeatherDisplay:10.37,2015-09-02 16:27:00,
2015-09-02 12:32:00,89.0,67.9,29.81,NNE,17,5.5,5.5,50,0.00,CLR,FEW,0.00,WeatherDisplay:10.37,2015-09-02 16:32:00,
2015-09-02 12:37:00,89.7,68.6,29.80,East,80,6.7,6.7,50,0.00,CLR,FEW,0.00,WeatherDisplay:10.37,2015-09-02 16:37:00,
2015-09-02 12:42:00,89.9,68.8,29.80,ENE,69,9.2,9.2,50,0.00,CLR,FEW,0.00,WeatherDisplay:10.37,2015-09-02 16:42:00,
2015-09-02 12:47:00,90.7,69.5,29.80,WNW,296,5.8,5.8,50,0.00,CLR,FEW,0.00,WeatherDisplay:10.37,2015-09-02 16:47:00,
2015-09-02 12:52:00,90.9,69.7,29.80,East,79,9.2,9.2,50,0.00,CLR,FEW,0.00,WeatherDisplay:10.37,2015-09-02 16:52:00,
2015-09-02 12:57:00,90.2,69.0,29.79,NE,34,9.2,9.2,50,0.00,CLR,FEW,0.00,WeatherDisplay:10.37,2015-09-02 16:57:00,
2015-09-02 13:02:00,89.9,68.8,29.79,ESE,120,10.4,10.4,50,0.00,CLR,FEW,0.00,WeatherDisplay:10.37,2015-09-02 17:02:00,
2015-09-02 13:07:00,89.1,68.0,29.79,SE,141,11.5,11.5,50,0.00,CLR,FEW,0.00,WeatherDisplay:10.37,2015-09-02 17:07:00,
2015-09-02 13:12:00,88.1,67.1,29.79,NE,38,9.5,9.5,50,0.00,CLR,FEW,0.00,WeatherDisplay:10.37,2015-09-02 17:12:00,
2015-09-02 13:17:00,87.8,66.8,29.79,NE,38,9.2,9.2,50,0.00,CLR,FEW,0.00,WeatherDisplay:10.37,2015-09-02 17:17:00,
2015-09-02 13:22:00,88.6,67.6,29.78,SSE,151,4.3,4.3,50,0.00,CLR,FEW,0.00,WeatherDisplay:10.37,2015-09-02 17:22:00,
2015-09-02 13:27:00,88.7,67.7,29.78,ENE,71,6.2,6.2,50,0.00,CLR,FEW,0.00,WeatherDisplay:10.37,2015-09-02 17:27:00,
2015-09-02 13:32:00,88.5,67.5,29.78,East,85,6.9,6.9,50,0.00,CLR,FEW,0.00,WeatherDisplay:10.37,2015-09-02 17:32:00,
2015-09-02 13:37:00,88.8,67.8,29.78,East,95,8.1,8.1,50,0.00,CLR,FEW,0.00,WeatherDisplay:10.37,2015-09-02 17:37:00,
2015-09-02 13:42:00,88.4,67.4,29.78,North,356,9.2,9.2,50,0.00,CLR,FEW,0.00,WeatherDisplay:10.37,2015-09-02 17:42:00,
2015-09-02 13:47:00,88.5,67.5,29.78,ENE,76,10.4,10.4,50,0.00,CLR,FEW,0.00,WeatherDisplay:10.37,2015-09-02 17:47:00,
2015-09-02 13:52:00,88.5,67.5,29.78,East,96,9.2,9.2,50,0.00,CLR,FEW,0.00,WeatherDisplay:10.37,2015-09-02 17:52:00,
2015-09-02 13:57:00,89.6,68.5,29.77,ENE,72,6.9,6.9,50,0.00,CLR,FEW,0.00,WeatherDisplay:10.37,2015-09-02 17:57:00,
2015-09-02 14:02:00,89.4,68.3,29.77,NE,44,10.4,10.4,50,0.00,CLR,FEW,0.00,WeatherDisplay:10.37,2015-09-02 18:02:00,
2015-09-02 14:07:00,88.7,67.7,29.77,ENE,65,10.6,10.6,50,0.00,CLR,FEW,0.00,WeatherDisplay:10.37,2015-09-02 18:07:00,
2015-09-02 14:12:00,89.0,67.9,29.77,ENE,58,11.5,11.5,50,0.00,CLR,FEW,0.00,WeatherDisplay:10.37,2015-09-02 18:12:00,
2015-09-02 14:17:00,89.1,68.0,29.77,NE,38,12.7,12.7,50,0.00,CLR,FEW,0.00,WeatherDisplay:10.37,2015-09-02 18:17:00,
2015-09-02 14:22:00,89.4,68.3,29.77,NE,34,15.0,15.0,50,0.00,CLR,FEW,0.00,WeatherDisplay:10.37,2015-09-02 18:22:00,
2015-09-02 14:27:00,89.2,68.1,29.77,NE,42,9.2,9.2,50,0.00,CLR,FEW,0.00,WeatherDisplay:10.37,2015-09-02 18:27:00,
2015-09-02 14:32:00,89.3,68.2,29.77,ENE,58,8.1,8.1,50,0.00,CLR,FEW,0.00,WeatherDisplay:10.37,2015-09-02 18:32:00,
2015-09-02 14:37:00,89.0,67.9,29.76,NE,55,11.5,11.5,50,0.00,CLR,FEW,0.00,WeatherDisplay:10.37,2015-09-02 18:37:00,
2015-09-02 14:42:00,89.8,68.7,29.76,SE,133,9.2,9.2,50,0.00,CLR,FEW,0.00,WeatherDisplay:10.37,2015-09-02 18:42:00,
2015-09-02 14:47:00,90.0,68.9,29.76,East,89,10.4,10.4,50,0.00,CLR,FEW,0.00,WeatherDisplay:10.37,2015-09-02 18:47:00,
2015-09-02 14:52:00,89.9,68.8,29.76,East,86,11.5,11.5,50,0.00,CLR,FEW,0.00,WeatherDisplay:10.37,2015-09-02 18:52:00,
2015-09-02 14:57:00,89.8,68.7,29.76,East,90,8.1,8.1,50,0.00,CLR,FEW,0.00,WeatherDisplay:10.37,2015-09-02 18:57:00,
2015-09-02 15:02:00,89.8,68.7,29.76,SE,141,8.1,8.1,50,0.00,CLR,FEW,0.00,WeatherDisplay:10.37,2015-09-02 19:02:00,
2015-09-02 15:12:00,88.8,67.8,29.75,ESE,102,10.4,10.4,50,0.00,CLR,FEW,0.00,WeatherDisplay:10.37,2015-09-02 19:12:00,